createdAt,value
2019-02-14T00:02:07.396Z,62.73
2019-02-14T00:05:16.398Z,63.60
2019-02-14T00:08:17.893Z,67.87
2019-02-14T00:11:22.186Z,61.27
2019-02-14T00:14:26.487Z,60.13
2019-02-14T00:17:30.788Z,67.73
2019-02-14T00:20:35.101Z,58.17
2019-02-14T00:23:39.396Z,64.60
2019-02-14T00:26:43.677Z,62.43
2019-02-14T00:29:47.967Z,68.13
2019-02-14T00:32:52.244Z,71.93
2019-02-14T00:35:56.528Z,63.13
2019-02-14T00:39:00.881Z,60.63
2019-02-14T00:42:05.469Z,63.40
2019-02-14T00:45:09.731Z,60.93
2019-02-14T00:48:15.511Z,67.67
2019-02-14T00:51:19.819Z,62.10
2019-02-14T00:54:24.120Z,67.23
2019-02-14T00:57:28.307Z,61.23
2019-02-14T01:00:32.615Z,67.07
2019-02-14T01:03:36.895Z,61.53
2019-02-14T01:06:41.241Z,62.93
2019-02-14T01:09:45.522Z,63.33
2019-02-14T01:12:50.797Z,62.20
2019-02-14T01:15:55.376Z,63.40
2019-02-14T01:18:59.698Z,59.10
2019-02-14T01:22:04.047Z,68.03
2019-02-14T01:25:08.347Z,61.23
2019-02-14T01:28:12.663Z,53.77
2019-02-14T01:31:16.984Z,56.27
2019-02-14T01:34:21.251Z,64.23
2019-02-14T01:37:25.559Z,61.13
2019-02-14T01:40:29.828Z,60.10
2019-02-14T01:43:34.128Z,69.77
2019-02-14T01:46:38.464Z,66.47
2019-02-14T01:49:42.795Z,62.80
2019-02-14T01:52:47.184Z,63.30
2019-02-14T01:55:51.529Z,58.47
2019-02-14T01:58:55.797Z,67.93
2019-02-14T02:02:00.096Z,67.93
2019-02-14T02:05:04.400Z,70.63
2019-02-14T02:08:09.079Z,59.80
2019-02-14T02:11:13.515Z,72.17
2019-02-14T02:14:17.893Z,68.40
2019-02-14T02:17:22.159Z,66.03
2019-02-14T02:20:33.176Z,63.70
2019-02-14T02:23:32.644Z,64.20
2019-02-14T02:26:37.012Z,65.27
2019-02-14T02:29:41.278Z,63.07
2019-02-14T02:32:45.496Z,63.23
2019-02-14T02:35:49.760Z,64.90
2019-02-14T02:38:54.385Z,57.50
2019-02-14T02:41:58.657Z,63.27
2019-02-14T02:45:03.040Z,61.03
2019-02-14T02:48:07.373Z,61.13
2019-02-14T02:51:11.772Z,61.20
2019-02-14T02:54:16.112Z,58.63
2019-02-14T02:57:20.605Z,59.20
2019-02-14T03:00:24.881Z,55.33
2019-02-14T03:03:29.187Z,56.37
2019-02-14T03:06:33.448Z,60.27
2019-02-14T03:09:37.753Z,57.40
2019-02-14T03:12:42.025Z,59.47
2019-02-14T03:15:46.321Z,58.23
2019-02-14T03:18:50.580Z,60.93
2019-02-14T03:21:54.916Z,59.60
2019-02-14T03:24:59.261Z,69.70
2019-02-14T03:28:03.629Z,57.23
2019-02-14T03:31:07.901Z,55.30
2019-02-14T03:34:12.284Z,58.97
2019-02-14T03:37:16.622Z,58.80
2019-02-14T03:40:21.035Z,58.97
2019-02-14T03:43:25.316Z,58.17
2019-02-14T03:46:29.689Z,59.13
2019-02-14T03:49:33.952Z,57.57
2019-02-14T03:52:38.351Z,65.13
2019-02-14T03:55:42.675Z,57.33
2019-02-14T03:58:46.985Z,53.03
2019-02-14T04:01:51.331Z,53.50
2019-02-14T04:04:55.647Z,56.00
2019-02-14T04:07:59.919Z,63.13
2019-02-14T04:11:04.440Z,60.87
2019-02-14T04:14:08.787Z,52.40
2019-02-14T04:17:13.301Z,58.27
2019-02-14T04:20:17.651Z,53.10
2019-02-14T04:23:22.036Z,53.67
2019-02-14T04:26:26.514Z,53.13
2019-02-14T04:29:30.820Z,52.90
2019-02-14T04:32:35.084Z,57.77
2019-02-14T04:35:39.380Z,58.00
2019-02-14T04:38:43.584Z,54.77
2019-02-14T04:41:47.996Z,55.57
2019-02-14T04:44:52.258Z,61.67
2019-02-14T04:47:56.644Z,56.57
2019-02-14T04:51:00.989Z,60.70
2019-02-14T04:54:05.492Z,52.40
2019-02-14T04:57:09.767Z,55.70
2019-02-14T05:00:14.190Z,56.27
2019-02-14T05:03:18.525Z,50.53
2019-02-14T05:06:22.836Z,55.70
2019-02-14T05:09:27.167Z,49.07
2019-02-14T05:12:31.487Z,50.87
2019-02-14T05:15:35.768Z,51.63
2019-02-14T05:18:40.068Z,52.40
2019-02-14T05:21:44.343Z,51.07
2019-02-14T05:24:48.634Z,49.40
2019-02-14T05:27:52.916Z,49.43
2019-02-14T05:30:57.224Z,47.53
2019-02-14T05:34:01.504Z,50.67
2019-02-14T05:37:05.913Z,47.73
2019-02-14T05:40:10.396Z,51.00
2019-02-14T05:43:14.751Z,49.03
2019-02-14T05:46:19.047Z,42.63
2019-02-14T05:49:23.351Z,49.57
2019-02-14T05:52:27.816Z,51.73
2019-02-14T05:55:32.120Z,47.37
2019-02-14T05:58:36.445Z,48.40
2019-02-14T06:01:40.768Z,45.33
2019-02-14T06:04:45.030Z,41.83
2019-02-14T06:07:49.393Z,47.70
2019-02-14T06:10:53.883Z,45.40
2019-02-14T06:13:58.215Z,43.27
2019-02-14T06:17:02.773Z,50.00
2019-02-14T06:20:07.846Z,41.83
2019-02-14T06:23:12.210Z,44.83
2019-02-14T06:26:16.509Z,44.73
2019-02-14T06:29:20.861Z,44.30
2019-02-14T06:32:26.686Z,45.10
2019-02-14T06:35:31.097Z,45.77
2019-02-14T06:38:35.404Z,46.03
2019-02-14T06:41:39.666Z,48.97
2019-02-14T06:44:43.968Z,49.80
2019-02-14T06:47:48.252Z,47.23
2019-02-14T06:50:54.758Z,47.13
2019-02-14T06:53:59.159Z,50.83
2019-02-14T06:57:03.488Z,49.57
2019-02-14T07:00:09.183Z,50.10
2019-02-14T07:03:13.489Z,44.50
2019-02-14T07:06:17.839Z,47.57
2019-02-14T07:09:22.151Z,54.63
2019-02-14T07:12:26.592Z,55.97
2019-02-14T07:15:31.019Z,54.20
2019-02-14T07:18:35.383Z,48.30
2019-02-14T07:21:39.763Z,54.37
2019-02-14T07:24:44.044Z,51.17
2019-02-14T07:27:48.353Z,55.23
2019-02-14T07:30:52.712Z,52.73
2019-02-14T07:33:57.099Z,53.43
2019-02-14T07:37:01.444Z,50.37
2019-02-14T07:40:06.631Z,51.30
2019-02-14T07:43:10.974Z,56.47
2019-02-14T07:46:22.541Z,55.43
2019-02-14T07:49:21.412Z,63.33
2019-02-14T07:52:25.783Z,59.73
2019-02-14T07:55:30.073Z,65.40
2019-02-14T07:58:34.448Z,62.33
2019-02-14T08:01:38.760Z,59.40
2019-02-14T08:04:43.077Z,63.17
2019-02-14T08:07:47.416Z,69.87
2019-02-14T08:10:51.702Z,60.07
2019-02-14T08:13:56.077Z,62.40
2019-02-14T08:17:00.466Z,64.23
2019-02-14T08:20:05.192Z,59.60
2019-02-14T08:23:09.513Z,63.70
2019-02-14T08:26:13.780Z,66.57
2019-02-14T08:29:18.090Z,68.30
2019-02-14T08:32:22.404Z,66.10
2019-02-14T08:35:26.717Z,62.20
2019-02-14T08:38:31.016Z,62.37
2019-02-14T08:41:35.411Z,63.33
2019-02-14T08:44:39.687Z,58.87
2019-02-14T08:47:44.082Z,57.93
2019-02-14T08:50:48.421Z,49.00
2019-02-14T08:53:52.940Z,51.33
2019-02-14T08:56:57.226Z,48.93
2019-02-14T09:00:01.603Z,42.97
2019-02-14T09:03:05.933Z,40.57
2019-02-14T09:06:10.299Z,33.00
2019-02-14T09:09:14.611Z,29.40
2019-02-14T09:12:19.005Z,33.33
2019-02-14T09:15:23.352Z,27.33
2019-02-14T09:18:27.682Z,25.10
2019-02-14T09:21:31.983Z,26.30
2019-02-14T09:24:36.374Z,23.53
2019-02-14T09:27:40.817Z,23.80
2019-02-14T09:30:45.117Z,26.53
2019-02-14T09:33:49.381Z,21.90
2019-02-14T09:36:53.692Z,23.17
2019-02-14T09:39:58.049Z,24.83
2019-02-14T09:43:02.485Z,22.10
2019-02-14T09:46:06.868Z,27.87
2019-02-14T09:49:11.256Z,22.80
2019-02-14T09:52:15.605Z,21.10
2019-02-14T09:55:19.934Z,21.97
2019-02-14T09:58:24.273Z,21.63
2019-02-14T10:01:28.694Z,19.90
2019-02-14T10:04:33.136Z,20.50
2019-02-14T10:07:37.522Z,19.10
2019-02-14T10:10:41.877Z,24.20
2019-02-14T10:13:46.234Z,18.33
2019-02-14T10:16:50.568Z,18.17
2019-02-14T10:19:54.902Z,22.27
2019-02-14T10:22:59.193Z,21.47
2019-02-14T10:26:03.564Z,22.63
2019-02-14T10:29:07.866Z,21.17
2019-02-14T10:32:12.197Z,21.27
2019-02-14T10:35:16.532Z,22.70
2019-02-14T10:38:22.660Z,20.77
2019-02-14T10:41:26.928Z,18.87
2019-02-14T10:44:31.262Z,19.33
2019-02-14T10:47:35.608Z,20.70
2019-02-14T10:50:39.941Z,19.73
2019-02-14T10:53:44.481Z,19.33
2019-02-14T10:56:49.031Z,19.93
2019-02-14T10:59:53.503Z,20.10
2019-02-14T11:02:57.801Z,20.97
2019-02-14T11:06:02.296Z,19.67
2019-02-14T11:09:07.250Z,20.83
2019-02-14T11:12:11.541Z,20.47
2019-02-14T11:15:17.081Z,24.90
2019-02-14T11:18:21.907Z,26.37
2019-02-14T11:21:26.300Z,24.33
2019-02-14T11:24:30.661Z,24.17
2019-02-14T11:27:34.968Z,21.53
2019-02-14T11:30:39.256Z,25.13
2019-02-14T11:33:43.568Z,23.27
2019-02-14T11:36:47.924Z,21.73
2019-02-14T11:39:52.228Z,24.00
2019-02-14T11:42:56.530Z,23.03
2019-02-14T11:46:00.913Z,27.30
2019-02-14T11:49:05.185Z,20.87
2019-02-14T11:52:09.489Z,23.57
2019-02-14T11:55:13.912Z,24.80
2019-02-14T11:58:18.222Z,23.43
2019-02-14T12:01:22.496Z,24.80
2019-02-14T12:04:26.804Z,23.30
2019-02-14T12:07:31.065Z,21.30
2019-02-14T12:10:35.381Z,16.87
2019-02-14T12:13:39.690Z,15.27
2019-02-14T12:16:44.041Z,13.50
2019-02-14T12:19:49.003Z,14.70
2019-02-14T12:22:53.444Z,12.73
2019-02-14T12:25:57.741Z,14.57
2019-02-14T12:29:02.141Z,13.30
2019-02-14T12:32:06.438Z,15.03
2019-02-14T12:35:10.920Z,15.77
2019-02-14T12:38:15.223Z,12.80
2019-02-14T12:41:19.625Z,15.37
2019-02-14T12:44:24.075Z,14.37
2019-02-14T12:47:28.580Z,13.47
2019-02-14T12:50:32.952Z,17.60
2019-02-14T12:53:37.681Z,14.90
2019-02-14T12:56:42.029Z,14.20
2019-02-14T12:59:46.412Z,13.67
2019-02-14T13:02:50.917Z,12.83
2019-02-14T13:05:55.436Z,11.70
2019-02-14T13:08:59.706Z,16.93
2019-02-14T13:12:04.031Z,15.73
2019-02-14T13:15:10.994Z,20.90
2019-02-14T13:18:15.368Z,23.83
2019-02-14T13:21:19.726Z,29.17
2019-02-14T13:24:24.251Z,31.50
2019-02-14T13:27:29.015Z,32.57
2019-02-14T13:30:33.423Z,27.77
2019-02-14T13:33:37.897Z,30.47
2019-02-14T13:36:42.318Z,26.10
2019-02-14T13:39:46.835Z,28.57
2019-02-14T13:42:52.210Z,28.43
2019-02-14T13:45:56.626Z,27.10
2019-02-14T13:49:00.988Z,27.93
2019-02-14T13:52:06.473Z,26.37
2019-02-14T13:55:10.962Z,28.67
2019-02-14T13:58:15.399Z,28.43
2019-02-14T14:01:19.797Z,24.23
2019-02-14T14:04:24.298Z,27.40
2019-02-14T14:07:28.852Z,27.53
2019-02-14T14:10:33.196Z,28.33
2019-02-14T14:13:37.652Z,28.80
2019-02-14T14:16:42.212Z,28.67
2019-02-14T14:19:46.697Z,23.83
2019-02-14T14:22:51.111Z,25.40
2019-02-14T14:25:55.568Z,27.93
2019-02-14T14:29:00.348Z,28.83
2019-02-14T14:32:05.325Z,29.13
2019-02-14T14:35:11.046Z,25.93
2019-02-14T14:38:15.723Z,29.60
2019-02-14T14:41:20.142Z,27.47
2019-02-14T14:44:36.349Z,29.63
2019-02-14T14:47:40.718Z,33.03
2019-02-14T14:50:45.096Z,34.37
2019-02-14T14:53:49.451Z,37.67
2019-02-14T14:56:53.881Z,33.43
2019-02-14T14:59:58.230Z,33.57
2019-02-14T15:03:02.613Z,36.43
2019-02-14T15:06:07.005Z,33.50
2019-02-14T15:09:11.388Z,33.20
2019-02-14T15:12:15.701Z,37.37
2019-02-14T15:15:20.007Z,32.07
2019-02-14T15:18:24.519Z,33.90
2019-02-14T15:21:28.908Z,35.23
2019-02-14T15:24:33.193Z,37.83
2019-02-14T15:27:37.536Z,41.77
2019-02-14T15:30:41.898Z,37.17
2019-02-14T15:33:46.248Z,40.27
2019-02-14T15:36:51.816Z,39.90
2019-02-14T15:39:56.357Z,40.07
2019-02-14T15:43:00.700Z,39.60
2019-02-14T15:46:05.100Z,39.00
2019-02-14T15:49:09.466Z,44.17
2019-02-14T15:52:13.852Z,48.50
2019-02-14T15:55:19.520Z,41.40
2019-02-14T15:58:24.589Z,43.33
2019-02-14T16:01:29.035Z,44.57
2019-02-14T16:04:33.420Z,50.37
2019-02-14T16:07:39.501Z,54.60
2019-02-14T16:10:43.861Z,53.30
2019-02-14T16:13:48.221Z,57.87
2019-02-14T16:16:52.612Z,58.53
2019-02-14T16:19:57.705Z,61.27
2019-02-14T16:23:04.137Z,57.73
2019-02-14T16:26:09.141Z,59.33
2019-02-14T16:29:13.533Z,60.80
2019-02-14T16:32:17.997Z,62.10
2019-02-14T16:35:22.384Z,62.23
2019-02-14T16:38:26.746Z,67.60
2019-02-14T16:41:31.129Z,72.67
2019-02-14T16:44:35.498Z,73.93
2019-02-14T16:47:39.814Z,77.20
2019-02-14T16:50:44.191Z,75.27
2019-02-14T16:53:48.558Z,78.73
2019-02-14T16:56:52.847Z,77.10
2019-02-14T16:59:57.299Z,77.83
2019-02-14T17:03:01.713Z,77.13
2019-02-14T17:06:06.123Z,77.23
2019-02-14T17:09:10.480Z,79.13
2019-02-14T17:12:14.933Z,80.73
2019-02-14T17:15:19.285Z,80.43
2019-02-14T17:18:23.662Z,84.40
2019-02-14T17:21:28.937Z,88.00
2019-02-14T17:24:33.348Z,80.03
2019-02-14T17:27:37.772Z,88.07
2019-02-14T17:30:42.232Z,86.17
2019-02-14T17:33:46.662Z,90.13
2019-02-14T17:36:51.044Z,84.97
2019-02-14T17:39:55.445Z,86.40
2019-02-14T17:42:59.871Z,91.57
2019-02-14T17:46:04.238Z,91.67
2019-02-14T17:49:08.657Z,96.27
2019-02-14T17:52:12.959Z,93.10
2019-02-14T17:55:17.363Z,94.07
2019-02-14T17:58:21.772Z,90.40
2019-02-14T18:01:26.148Z,88.50
2019-02-14T18:04:30.515Z,101.03
2019-02-14T18:07:34.921Z,109.30
2019-02-14T18:10:39.333Z,115.73
2019-02-14T18:13:43.685Z,124.33
2019-02-14T18:16:48.041Z,123.73
2019-02-14T18:19:52.351Z,125.07
2019-02-14T18:22:56.635Z,136.63
2019-02-14T18:26:00.999Z,130.60
2019-02-14T18:29:05.812Z,138.57
2019-02-14T18:32:10.200Z,138.23
2019-02-14T18:35:14.676Z,146.07
2019-02-14T18:38:19.001Z,148.03
2019-02-14T18:41:25.625Z,150.17
2019-02-14T18:44:30.011Z,144.97
2019-02-14T18:47:39.651Z,150.10
2019-02-14T18:50:40.449Z,152.17
2019-02-14T18:53:44.887Z,148.30
2019-02-14T18:56:49.306Z,155.77
2019-02-14T18:59:53.678Z,137.90
2019-02-14T19:02:58.225Z,138.20
2019-02-14T19:06:02.651Z,140.50
2019-02-14T19:09:09.040Z,141.70
2019-02-14T19:12:13.443Z,135.77
2019-02-14T19:15:17.768Z,132.20
2019-02-14T19:18:22.217Z,120.00
2019-02-14T19:21:26.703Z,120.53
2019-02-14T19:24:31.161Z,125.43
2019-02-14T19:27:35.488Z,127.37
2019-02-14T19:30:39.861Z,124.30
2019-02-14T19:33:46.012Z,124.30
2019-02-14T19:36:50.402Z,125.53
2019-02-14T19:39:54.813Z,129.90
2019-02-14T19:43:00.811Z,129.63
2019-02-14T19:46:05.640Z,136.10
2019-02-14T19:49:10.131Z,132.97
2019-02-14T19:52:14.621Z,136.13
2019-02-14T19:55:19.092Z,143.77
2019-02-14T19:58:23.613Z,138.90
2019-02-14T20:01:28.073Z,136.40
2019-02-14T20:04:34.193Z,136.43
2019-02-14T20:07:39.127Z,187.43
2019-02-14T20:10:43.589Z,166.30
2019-02-14T20:13:49.776Z,194.43
2019-02-14T20:16:54.942Z,194.23
2019-02-14T20:20:01.523Z,182.40
2019-02-14T20:23:07.377Z,188.87
2019-02-14T20:26:11.806Z,190.10
2019-02-14T20:29:16.181Z,178.10
2019-02-14T20:32:20.560Z,181.10
2019-02-14T20:35:24.962Z,173.67
2019-02-14T20:38:29.396Z,180.63
2019-02-14T20:41:33.844Z,181.93
2019-02-14T20:44:38.238Z,170.90
2019-02-14T20:47:43.473Z,184.80
2019-02-14T20:50:47.970Z,170.67
2019-02-14T20:53:53.058Z,186.43
2019-02-14T20:56:57.611Z,168.70
2019-02-14T21:00:02.218Z,180.53
2019-02-14T21:03:10.194Z,192.33
2019-02-14T21:06:14.610Z,196.33
2019-02-14T21:09:19.018Z,181.27
2019-02-14T21:12:25.751Z,180.70
2019-02-14T21:15:30.132Z,189.70
2019-02-14T21:18:34.590Z,183.60
2019-02-14T21:21:38.962Z,183.70
2019-02-14T21:24:44.029Z,181.47
2019-02-14T21:27:48.863Z,170.07
2019-02-14T21:30:53.525Z,166.53
2019-02-14T21:33:57.923Z,173.70
2019-02-14T21:37:02.304Z,162.50
2019-02-14T21:40:07.663Z,158.73
2019-02-14T21:43:12.041Z,165.87
2019-02-14T21:46:16.730Z,161.20
2019-02-14T21:49:21.126Z,158.77
2019-02-14T21:52:25.518Z,151.27
2019-02-14T21:55:30.243Z,159.93
2019-02-14T21:58:34.684Z,149.57
2019-02-14T22:01:39.091Z,137.40
2019-02-14T22:04:43.456Z,149.70
2019-02-14T22:07:47.857Z,141.37
2019-02-14T22:10:52.345Z,136.97
2019-02-14T22:13:56.802Z,137.90
2019-02-14T22:17:01.175Z,129.77
2019-02-14T22:20:06.299Z,134.83
2019-02-14T22:23:10.715Z,132.40
2019-02-14T22:26:15.108Z,129.67
2019-02-14T22:29:19.405Z,136.93
2019-02-14T22:32:23.891Z,129.93
2019-02-14T22:35:28.231Z,124.77
2019-02-14T22:38:32.557Z,133.03
2019-02-14T22:41:36.925Z,129.77
2019-02-14T22:44:41.335Z,135.17
2019-02-14T22:47:48.701Z,126.87
2019-02-14T22:50:53.792Z,134.83
2019-02-14T22:53:58.573Z,122.03
2019-02-14T22:57:02.907Z,137.27
2019-02-14T23:00:18.230Z,126.03
2019-02-14T23:03:22.925Z,126.20
2019-02-14T23:06:27.792Z,120.73
2019-02-14T23:09:32.142Z,126.53
2019-02-14T23:12:36.510Z,156.90
2019-02-14T23:15:40.833Z,136.80
2019-02-14T23:18:45.220Z,129.87
2019-02-14T23:21:49.643Z,133.00
2019-02-14T23:24:54.703Z,125.27
2019-02-14T23:27:59.899Z,125.10
2019-02-14T23:31:05.029Z,121.67
2019-02-14T23:34:10.249Z,128.17
2019-02-14T23:37:15.367Z,125.23
2019-02-14T23:40:20.343Z,123.60
2019-02-14T23:43:25.513Z,117.90
2019-02-14T23:46:30.580Z,114.30
2019-02-14T23:49:35.540Z,114.87
2019-02-14T23:52:40.608Z,120.30
2019-02-14T23:55:45.693Z,111.07
2019-02-14T23:58:50.760Z,117.03
